createdAt,value
2018-09-01T00:00:16.282Z,37.76
2018-09-01T00:01:16.320Z,37.38
2018-09-01T00:02:16.353Z,37.57
2018-09-01T00:03:16.398Z,37.67
2018-09-01T00:04:16.429Z,37.76
2018-09-01T00:05:16.477Z,38.14
2018-09-01T00:06:16.505Z,37.86
2018-09-01T00:07:16.540Z,37.86
2018-09-01T00:08:16.576Z,37.48
2018-09-01T00:09:16.612Z,37.67
2018-09-01T00:10:16.649Z,37.38
2018-09-01T00:11:16.769Z,37.19
2018-09-01T00:12:16.723Z,37.18
2018-09-01T00:13:16.760Z,37.65
2018-09-01T00:14:16.804Z,36.32
2018-09-01T00:15:16.841Z,35.94
2018-09-01T00:16:16.867Z,35.56
2018-09-01T00:17:16.906Z,35.75
2018-09-01T00:18:16.940Z,36.60
2018-09-01T00:19:16.977Z,35.08
2018-09-01T00:20:17.014Z,33.65
2018-09-01T00:21:17.050Z,33.28
2018-09-01T00:22:17.092Z,32.23
2018-09-01T00:23:17.125Z,31.47
2018-09-01T00:24:17.212Z,31.66
2018-09-01T00:25:17.197Z,31.66
2018-09-01T00:26:17.234Z,31.09
2018-09-01T00:27:17.269Z,32.04
2018-09-01T00:28:17.309Z,31.85
2018-09-01T00:29:17.344Z,31.85
2018-09-01T00:30:17.381Z,32.14
2018-09-01T00:31:17.424Z,32.23
2018-09-01T00:32:17.456Z,31.66
2018-09-01T00:33:17.491Z,31.84
2018-09-01T00:34:17.535Z,31.85
2018-09-01T00:35:17.564Z,31.26
2018-09-01T00:36:17.602Z,30.51
2018-09-01T00:37:17.660Z,29.27
2018-09-01T00:38:17.674Z,28.14
2018-09-01T00:39:17.709Z,27.95
2018-09-01T00:40:17.747Z,27.57
2018-09-01T00:41:17.785Z,27.48
2018-09-01T00:42:17.828Z,27.67
2018-09-01T00:43:17.858Z,27.67
2018-09-01T00:44:17.896Z,28.14
2018-09-01T00:45:17.939Z,27.76
2018-09-01T00:46:17.966Z,27.48
2018-09-01T00:47:18.004Z,27.57
2018-09-01T00:48:18.041Z,27.76
2018-09-01T00:49:18.076Z,27.67
2018-09-01T00:50:18.113Z,28.05
2018-09-01T00:51:18.151Z,27.86
2018-09-01T00:52:18.196Z,27.95
2018-09-01T00:53:18.234Z,28.23
2018-09-01T00:54:18.261Z,28.31
2018-09-01T00:55:18.294Z,28.90
2018-09-01T00:56:18.332Z,29.09
2018-09-01T00:57:18.368Z,28.62
2018-09-01T00:58:18.411Z,28.81
2018-09-01T00:59:18.561Z,29.00
2018-09-01T01:00:18.477Z,29.47
2018-09-01T01:01:18.515Z,30.23
2018-09-01T01:02:18.549Z,30.23
2018-09-01T01:03:18.587Z,31.17
2018-09-01T01:04:18.626Z,31.07
2018-09-01T01:05:18.660Z,31.66
2018-09-01T01:06:18.696Z,30.22
2018-09-01T01:07:18.733Z,30.22
2018-09-01T01:08:18.770Z,30.41
2018-09-01T01:09:18.807Z,29.00
2018-09-01T01:10:18.843Z,28.41
2018-09-01T01:11:18.879Z,27.48
2018-09-01T01:12:18.925Z,27.94
2018-09-01T01:13:18.951Z,27.56
2018-09-01T01:14:18.987Z,27.08
2018-09-01T01:15:19.029Z,27.56
2018-09-01T01:16:19.061Z,27.75
2018-09-01T01:17:19.103Z,27.46
2018-09-01T01:18:19.134Z,27.18
2018-09-01T01:19:19.170Z,26.70
2018-09-01T01:20:19.208Z,26.61
2018-09-01T01:21:19.247Z,26.61
2018-09-01T01:22:19.282Z,26.04
2018-09-01T01:23:19.317Z,25.75
2018-09-01T01:24:19.354Z,25.37
2018-09-01T01:25:19.398Z,24.71
2018-09-01T01:26:19.424Z,25.18
2018-09-01T01:27:19.462Z,25.09
2018-09-01T01:28:19.501Z,24.80
2018-09-01T01:29:19.535Z,24.99
2018-09-01T01:30:19.572Z,25.56
2018-09-01T01:31:19.611Z,25.09
2018-09-01T01:32:19.649Z,24.42
2018-09-01T01:33:19.680Z,24.13
2018-09-01T01:34:19.716Z,24.04
2018-09-01T01:35:19.755Z,24.04
2018-09-01T01:36:19.790Z,24.23
2018-09-01T01:37:19.827Z,23.75
2018-09-01T01:38:19.864Z,23.85
2018-09-01T01:39:19.899Z,23.66
2018-09-01T01:40:19.936Z,24.13
2018-09-01T01:41:19.977Z,23.66
2018-09-01T01:42:20.010Z,23.57
2018-09-01T01:43:20.046Z,23.57
2018-09-01T01:44:20.082Z,23.85
2018-09-01T01:45:20.126Z,23.94
2018-09-01T01:46:20.154Z,24.13
2018-09-01T01:47:20.191Z,24.23
2018-09-01T01:48:20.237Z,24.90
2018-09-01T01:49:20.264Z,25.37
2018-09-01T01:50:20.300Z,24.90
2018-09-01T01:51:20.340Z,25.37
2018-09-01T01:52:20.385Z,26.42
2018-09-01T01:53:20.409Z,25.18
2018-09-01T01:54:20.445Z,23.85
2018-09-01T01:55:20.482Z,23.38
2018-09-01T01:56:20.525Z,23.85
2018-09-01T01:57:20.553Z,23.94
2018-09-01T01:58:20.593Z,23.57
2018-09-01T01:59:20.630Z,23.08
2018-09-01T02:00:20.663Z,22.41
2018-09-01T02:01:20.699Z,22.41
2018-09-01T02:02:20.735Z,21.95
2018-09-01T02:03:20.772Z,22.42
2018-09-01T02:04:20.815Z,22.52
2018-09-01T02:05:20.845Z,22.90
2018-09-01T02:06:20.881Z,22.90
2018-09-01T02:07:20.915Z,22.80
2018-09-01T02:08:20.954Z,22.51
2018-09-01T02:09:20.991Z,22.42
2018-09-01T02:10:21.026Z,22.52
2018-09-01T02:11:21.062Z,22.89
2018-09-01T02:12:21.097Z,23.09
2018-09-01T02:13:21.134Z,22.90
2018-09-01T02:14:21.170Z,23.09
2018-09-01T02:15:21.207Z,23.85
2018-09-01T02:16:21.245Z,24.52
2018-09-01T02:17:21.279Z,24.22
2018-09-01T02:18:21.317Z,24.41
2018-09-01T02:19:21.350Z,24.04
2018-09-01T02:20:21.388Z,23.93
2018-09-01T02:21:21.429Z,23.84
2018-09-01T02:22:21.459Z,23.55
2018-09-01T02:23:21.502Z,23.65
2018-09-01T02:24:21.532Z,22.80
2018-09-01T02:25:21.570Z,22.70
2018-09-01T02:26:21.605Z,22.32
2018-09-01T02:27:21.641Z,21.84
2018-09-01T02:28:21.677Z,21.47
2018-09-01T02:29:21.715Z,21.75
2018-09-01T02:30:21.749Z,21.84
2018-09-01T02:31:21.785Z,22.41
2018-09-01T02:32:21.822Z,22.32
2018-09-01T02:33:21.857Z,22.80
2018-09-01T02:34:21.895Z,22.90
2018-09-01T02:35:21.933Z,22.80
2018-09-01T02:36:21.972Z,23.27
2018-09-01T02:37:22.010Z,23.08
2018-09-01T02:38:22.039Z,22.89
2018-09-01T02:39:22.076Z,22.89
2018-09-01T02:40:22.113Z,22.99
2018-09-01T02:41:22.150Z,22.99
2018-09-01T02:42:22.184Z,22.80
2018-09-01T02:43:22.221Z,22.89
2018-09-01T02:44:22.256Z,23.19
2018-09-01T02:45:22.292Z,23.46
2018-09-01T02:46:22.328Z,23.84
2018-09-01T02:47:22.363Z,23.65
2018-09-01T02:48:22.402Z,23.84
2018-09-01T02:49:22.438Z,23.65
2018-09-01T02:50:22.474Z,23.55
2018-09-01T02:51:22.514Z,23.74
2018-09-01T02:52:22.550Z,24.03
2018-09-01T02:53:22.591Z,24.03
2018-09-01T02:54:22.619Z,24.12
2018-09-01T02:55:22.655Z,22.99
2018-09-01T02:56:22.690Z,23.55
2018-09-01T02:57:22.730Z,23.74
2018-09-01T02:58:22.761Z,22.99
2018-09-01T02:59:22.804Z,22.41
2018-09-01T03:00:22.834Z,22.32
2018-09-01T03:01:22.877Z,22.03
2018-09-01T03:02:22.907Z,22.32
2018-09-01T03:03:22.944Z,21.94
2018-09-01T03:04:22.977Z,22.41
2018-09-01T03:05:23.014Z,22.03
2018-09-01T03:06:23.052Z,22.03
2018-09-01T03:07:23.086Z,22.80
2018-09-01T03:08:23.124Z,22.60
2018-09-01T03:09:23.160Z,21.94
2018-09-01T03:10:23.194Z,21.37
2018-09-01T03:11:23.231Z,21.47
2018-09-01T03:12:23.267Z,20.99
2018-09-01T03:13:23.304Z,21.08
2018-09-01T03:14:23.340Z,21.08
2018-09-01T03:15:23.376Z,21.08
2018-09-01T03:16:23.422Z,21.18
2018-09-01T03:17:23.450Z,21.18
2018-09-01T03:18:23.485Z,21.28
2018-09-01T03:19:23.622Z,21.37
2018-09-01T03:20:23.557Z,21.47
2018-09-01T03:21:23.593Z,21.94
2018-09-01T03:22:23.631Z,21.84
2018-09-01T03:23:23.665Z,22.32
2018-09-01T03:24:23.702Z,22.13
2018-09-01T03:25:23.740Z,22.80
2018-09-01T03:26:23.925Z,22.41
2018-09-01T03:27:23.810Z,22.60
2018-09-01T03:28:23.860Z,22.41
2018-09-01T03:29:23.883Z,22.03
2018-09-01T03:30:23.919Z,20.89
2018-09-01T03:31:23.956Z,19.76
2018-09-01T03:32:23.992Z,19.28
2018-09-01T03:33:24.032Z,19.09
2018-09-01T03:34:24.061Z,19.47
2018-09-01T03:35:24.098Z,19.18
2018-09-01T03:36:24.135Z,19.09
2018-09-01T03:37:24.186Z,19.18
2018-09-01T03:38:24.206Z,19.56
2018-09-01T03:39:24.253Z,19.76
2018-09-01T03:40:24.278Z,20.14
2018-09-01T03:41:24.315Z,20.04
2018-09-01T03:42:24.349Z,19.85
2018-09-01T03:43:24.386Z,19.95
2018-09-01T03:44:24.423Z,20.23
2018-09-01T03:45:24.456Z,20.23
2018-09-01T03:46:24.505Z,20.42
2018-09-01T03:47:24.531Z,21.17
2018-09-01T03:48:24.576Z,21.36
2018-09-01T03:49:24.611Z,21.45
2018-09-01T03:50:24.640Z,21.64
2018-09-01T03:51:24.673Z,21.26
2018-09-01T03:52:24.710Z,20.98
2018-09-01T03:53:24.748Z,21.45
2018-09-01T03:54:24.783Z,21.93
2018-09-01T03:55:24.827Z,22.02
2018-09-01T03:56:24.854Z,21.45
2018-09-01T03:57:24.898Z,21.17
2018-09-01T03:58:24.942Z,20.89
2018-09-01T03:59:24.962Z,20.89
2018-09-01T04:00:24.999Z,21.36
2018-09-01T04:01:25.041Z,21.08
2018-09-01T04:02:25.072Z,20.98
2018-09-01T04:03:25.107Z,19.93
2018-09-01T04:04:25.151Z,19.74
2018-09-01T04:05:25.184Z,19.37
2018-09-01T04:06:25.214Z,19.18
2018-09-01T04:07:25.251Z,18.41
2018-09-01T04:08:25.289Z,18.23
2018-09-01T04:09:25.324Z,17.94
2018-09-01T04:10:25.360Z,17.85
2018-09-01T04:11:25.393Z,18.04
2018-09-01T04:12:25.431Z,17.94
2018-09-01T04:13:25.466Z,17.94
2018-09-01T04:14:25.505Z,17.85
2018-09-01T04:15:25.541Z,18.32
2018-09-01T04:16:25.573Z,18.32
2018-09-01T04:17:25.611Z,18.13
2018-09-01T04:18:25.649Z,18.13
2018-09-01T04:19:25.684Z,18.98
2018-09-01T04:20:25.718Z,19.46
2018-09-01T04:21:25.755Z,19.37
2018-09-01T04:22:25.793Z,19.74
2018-09-01T04:23:25.826Z,19.93
2018-09-01T04:24:25.870Z,19.74
2018-09-01T04:25:25.899Z,20.12
2018-09-01T04:26:25.934Z,20.22
2018-09-01T04:27:25.971Z,19.74
2018-09-01T04:28:26.006Z,19.93
2018-09-01T04:29:26.045Z,19.37
2018-09-01T04:30:26.080Z,19.37
2018-09-01T04:31:26.114Z,19.56
2018-09-01T04:32:26.151Z,19.74
2018-09-01T04:33:26.186Z,20.22
2018-09-01T04:34:26.221Z,20.12
2018-09-01T04:35:26.361Z,20.03
2018-09-01T04:36:26.295Z,19.65
2018-09-01T04:37:26.331Z,20.12
2018-09-01T04:38:26.367Z,20.79
2018-09-01T04:39:26.400Z,20.98
2018-09-01T04:40:26.443Z,20.69
2018-09-01T04:41:26.474Z,20.69
2018-09-01T04:42:26.509Z,20.03
2018-09-01T04:43:26.549Z,20.03
2018-09-01T04:44:26.581Z,19.56
2018-09-01T04:45:26.617Z,18.79
2018-09-01T04:46:26.653Z,19.08
2018-09-01T04:47:26.688Z,18.60
2018-09-01T04:48:26.736Z,18.60
2018-09-01T04:49:26.761Z,18.23
2018-09-01T04:50:26.796Z,18.23
2018-09-01T04:51:26.835Z,18.70
2018-09-01T04:52:26.868Z,19.08
2018-09-01T04:53:26.907Z,19.18
2018-09-01T04:54:26.944Z,19.18
2018-09-01T04:55:26.981Z,19.74
2018-09-01T04:56:27.015Z,19.46
2018-09-01T04:57:27.050Z,19.56
2018-09-01T04:58:27.083Z,19.93
2018-09-01T04:59:27.125Z,20.31
2018-09-01T05:00:27.156Z,21.36
2018-09-01T05:01:27.284Z,21.45
2018-09-01T05:02:27.232Z,21.93
2018-09-01T05:03:27.263Z,22.97
2018-09-01T05:04:27.300Z,23.16
2018-09-01T05:05:27.335Z,23.35
2018-09-01T05:06:27.371Z,23.83
2018-09-01T05:07:27.408Z,23.64
2018-09-01T05:08:27.444Z,23.73
2018-09-01T05:09:27.481Z,23.73
2018-09-01T05:10:27.524Z,24.02
2018-09-01T05:11:27.552Z,24.21
2018-09-01T05:12:27.588Z,23.83
2018-09-01T05:13:27.625Z,24.02
2018-09-01T05:14:27.660Z,23.54
2018-09-01T05:15:27.697Z,22.88
2018-09-01T05:16:27.730Z,22.78
2018-09-01T05:17:27.769Z,23.64
2018-09-01T05:18:27.803Z,23.83
2018-09-01T05:19:27.837Z,23.64
2018-09-01T05:20:27.874Z,23.45
2018-09-01T05:21:27.912Z,23.07
2018-09-01T05:22:27.947Z,22.78
2018-09-01T05:23:27.984Z,22.78
2018-09-01T05:24:28.019Z,22.60
2018-09-01T05:25:28.054Z,23.16
2018-09-01T05:26:28.091Z,22.50
2018-09-01T05:27:28.125Z,22.40
2018-09-01T05:28:28.165Z,22.69
2018-09-01T05:29:28.199Z,22.97
2018-09-01T05:30:28.235Z,22.78
2018-09-01T05:31:28.270Z,23.54
2018-09-01T05:32:28.314Z,22.88
2018-09-01T05:33:28.344Z,22.88
2018-09-01T05:34:28.377Z,22.97
2018-09-01T05:35:28.415Z,22.88
2018-09-01T05:36:28.499Z,22.78
2018-09-01T05:37:28.486Z,23.07
2018-09-01T05:38:28.520Z,23.64
2018-09-01T05:39:28.559Z,23.73
2018-09-01T05:40:28.594Z,24.68
2018-09-01T05:41:28.639Z,25.06
2018-09-01T05:42:28.668Z,25.84
2018-09-01T05:43:28.703Z,25.93
2018-09-01T05:44:28.739Z,26.50
2018-09-01T05:45:28.782Z,26.88
2018-09-01T05:46:28.808Z,26.88
2018-09-01T05:47:28.845Z,26.88
2018-09-01T05:48:28.882Z,27.07
2018-09-01T05:49:28.919Z,27.73
2018-09-01T05:50:28.960Z,27.92
2018-09-01T05:51:28.990Z,28.21
2018-09-01T05:52:29.028Z,28.88
2018-09-01T05:53:29.064Z,28.78
2018-09-01T05:54:29.096Z,28.59
2018-09-01T05:55:29.134Z,28.78
2018-09-01T05:56:29.169Z,29.53
2018-09-01T05:57:29.209Z,29.92
2018-09-01T05:58:29.250Z,30.30
2018-09-01T05:59:29.277Z,30.11
2018-09-01T06:00:29.330Z,29.82
2018-09-01T06:01:29.668Z,30.30
2018-09-01T06:02:29.395Z,31.15
2018-09-01T06:03:29.421Z,31.64
2018-09-01T06:04:29.463Z,31.55
2018-09-01T06:05:29.493Z,31.84
2018-09-01T06:06:29.537Z,33.07
2018-09-01T06:07:29.586Z,34.69
2018-09-01T06:08:29.603Z,36.11
2018-09-01T06:09:29.649Z,35.25
2018-09-01T06:10:29.674Z,36.11
2018-09-01T06:11:29.767Z,36.40
2018-09-01T06:12:29.748Z,36.21
2018-09-01T06:13:29.791Z,36.58
2018-09-01T06:14:29.817Z,37.35
2018-09-01T06:15:29.855Z,37.25
2018-09-01T06:16:29.898Z,37.54
2018-09-01T06:17:29.962Z,39.06
2018-09-01T06:18:29.971Z,39.15
2018-09-01T06:19:30.003Z,38.20
2018-09-01T06:20:30.042Z,38.48
2018-09-01T06:21:30.084Z,38.39
2018-09-01T06:22:30.111Z,38.58
2018-09-01T06:23:30.144Z,39.06
2018-09-01T06:24:30.183Z,39.34
2018-09-01T06:25:30.218Z,39.93
2018-09-01T06:26:30.260Z,40.39
2018-09-01T06:27:30.290Z,40.59
2018-09-01T06:28:30.334Z,39.65
2018-09-01T06:29:30.364Z,38.89
2018-09-01T06:30:30.396Z,40.22
2018-09-01T06:31:30.442Z,40.59
2018-09-01T06:32:30.472Z,40.03
2018-09-01T06:33:30.522Z,40.22
2018-09-01T06:34:30.549Z,39.65
2018-09-01T06:35:30.596Z,40.22
2018-09-01T06:36:30.618Z,40.50
2018-09-01T06:37:30.715Z,39.55
2018-09-01T06:38:30.690Z,40.31
2018-09-01T06:39:30.728Z,39.95
2018-09-01T06:40:30.767Z,40.52
2018-09-01T06:41:30.810Z,40.31
2018-09-01T06:42:30.838Z,40.90
2018-09-01T06:43:30.876Z,40.90
2018-09-01T06:44:30.910Z,40.43
2018-09-01T06:45:30.955Z,40.05
2018-09-01T06:46:30.983Z,40.62
2018-09-01T06:47:31.134Z,40.90
2018-09-01T06:48:31.061Z,40.43
2018-09-01T06:49:31.094Z,41.19
2018-09-01T06:50:31.135Z,42.61
2018-09-01T06:51:31.225Z,45.00
2018-09-01T06:52:31.204Z,47.47
2018-09-01T06:53:31.240Z,47.47
2018-09-01T06:54:31.274Z,47.49
2018-09-01T06:55:31.321Z,48.61
2018-09-01T06:56:31.356Z,48.06
2018-09-01T06:57:31.388Z,45.75
2018-09-01T06:58:31.445Z,45.30
2018-09-01T06:59:31.462Z,47.58
2018-09-01T07:00:31.495Z,47.02
2018-09-01T07:01:31.532Z,47.30
2018-09-01T07:02:31.569Z,46.92
2018-09-01T07:03:31.608Z,46.83
2018-09-01T07:04:31.642Z,46.54
2018-09-01T07:05:31.679Z,47.20
2018-09-01T07:06:31.717Z,47.58
2018-09-01T07:07:31.754Z,47.20
2018-09-01T07:08:31.800Z,48.63
2018-09-01T07:09:31.831Z,48.25
2018-09-01T07:10:31.869Z,48.92
2018-09-01T07:11:31.899Z,50.82
2018-09-01T07:12:31.947Z,51.20
2018-09-01T07:13:31.976Z,51.68
2018-09-01T07:14:32.020Z,49.20
2018-09-01T07:15:32.047Z,50.54
2018-09-01T07:16:32.084Z,50.44
2018-09-01T07:17:32.121Z,49.04
2018-09-01T07:18:32.157Z,49.42
2018-09-01T07:19:32.195Z,49.80
2018-09-01T07:20:32.241Z,49.80
2018-09-01T07:21:32.272Z,49.71
2018-09-01T07:22:32.306Z,49.90
2018-09-01T07:23:32.342Z,50.94
2018-09-01T07:24:32.378Z,50.46
2018-09-01T07:25:32.417Z,50.56
2018-09-01T07:26:32.454Z,51.32
2018-09-01T07:27:32.489Z,52.11
2018-09-01T07:28:32.532Z,52.11
2018-09-01T07:29:32.568Z,53.16
2018-09-01T07:30:32.654Z,52.59
2018-09-01T07:31:33.065Z,51.73
2018-09-01T07:32:32.675Z,51.35
2018-09-01T07:33:32.717Z,53.92
2018-09-01T07:34:32.747Z,54.88
2018-09-01T07:35:32.785Z,56.87
2018-09-01T07:36:32.823Z,57.07
2018-09-01T07:37:32.862Z,57.64
2018-09-01T07:38:32.896Z,55.92
2018-09-01T07:39:32.933Z,58.02
2018-09-01T07:40:32.969Z,60.24
2018-09-01T07:41:33.010Z,60.14
2018-09-01T07:42:33.048Z,60.72
2018-09-01T07:43:33.091Z,61.10
2018-09-01T07:44:33.119Z,60.43
2018-09-01T07:45:33.163Z,60.52
2018-09-01T07:46:33.194Z,63.76
2018-09-01T07:47:33.232Z,64.09
2018-09-01T07:48:33.269Z,64.18
2018-09-01T07:49:33.316Z,65.70
2018-09-01T07:50:33.342Z,65.04
2018-09-01T07:51:33.381Z,66.28
2018-09-01T07:52:33.429Z,66.66
2018-09-01T07:53:33.460Z,66.38
2018-09-01T07:54:33.497Z,65.04
2018-09-01T07:55:33.532Z,64.75
2018-09-01T07:56:33.567Z,64.37
2018-09-01T07:57:33.605Z,64.18
2018-09-01T07:58:33.646Z,63.51
2018-09-01T07:59:33.679Z,63.60
2018-09-01T08:00:33.719Z,64.09
2018-09-01T08:01:33.754Z,64.85
2018-09-01T08:02:33.790Z,64.47
2018-09-01T08:03:33.829Z,64.56
2018-09-01T08:04:33.866Z,65.42
2018-09-01T08:05:33.930Z,63.42
2018-09-01T08:06:33.942Z,64.85
2018-09-01T08:07:33.995Z,65.33
2018-09-01T08:08:34.022Z,65.61
2018-09-01T08:09:34.054Z,67.36
2018-09-01T08:10:34.094Z,68.41
2018-09-01T08:11:34.129Z,69.93
2018-09-01T08:12:34.167Z,70.79
2018-09-01T08:13:34.209Z,72.42
2018-09-01T08:14:34.331Z,72.71
2018-09-01T08:15:34.288Z,74.04
2018-09-01T08:16:34.322Z,74.04
2018-09-01T08:17:34.438Z,74.90
2018-09-01T08:18:34.447Z,75.09
2018-09-01T08:19:34.692Z,75.66
2018-09-01T08:20:34.470Z,76.08
2018-09-01T08:21:34.629Z,75.60
2018-09-01T08:22:34.554Z,77.99
2018-09-01T08:23:34.583Z,78.66
2018-09-01T08:24:34.621Z,80.66
2018-09-01T08:25:34.659Z,80.99
2018-09-01T08:26:34.696Z,80.70
2018-09-01T08:27:34.741Z,81.18
2018-09-01T08:28:34.777Z,81.18
2018-09-01T08:29:34.819Z,81.56
2018-09-01T08:30:34.852Z,82.04
2018-09-01T08:31:34.902Z,81.85
2018-09-01T08:32:34.927Z,81.56
2018-09-01T08:33:35.009Z,81.85
2018-09-01T08:34:35.003Z,82.14
2018-09-01T08:35:35.048Z,81.47
2018-09-01T08:36:35.085Z,81.85
2018-09-01T08:37:35.123Z,82.08
2018-09-01T08:38:35.151Z,82.84
2018-09-01T08:39:35.193Z,82.65
2018-09-01T08:40:35.232Z,83.70
2018-09-01T08:41:35.266Z,83.51
2018-09-01T08:42:35.320Z,83.80
2018-09-01T08:43:35.352Z,84.28
2018-09-01T08:44:35.381Z,83.70
2018-09-01T08:45:35.424Z,84.52
2018-09-01T08:46:35.456Z,84.03
2018-09-01T08:47:35.498Z,85.09
2018-09-01T08:48:35.535Z,84.89
2018-09-01T08:49:35.572Z,85.57
2018-09-01T08:50:35.614Z,84.99
2018-09-01T08:51:35.649Z,85.38
2018-09-01T08:52:35.687Z,85.09
2018-09-01T08:53:35.732Z,84.99
2018-09-01T08:54:35.766Z,86.52
2018-09-01T08:55:35.805Z,86.23
2018-09-01T08:56:35.888Z,86.28
2018-09-01T08:57:35.879Z,86.94
2018-09-01T08:58:35.920Z,86.85
2018-09-01T08:59:35.956Z,87.14
2018-09-01T09:00:35.994Z,87.52
2018-09-01T09:01:36.033Z,87.62
2018-09-01T09:02:36.073Z,87.71
2018-09-01T09:03:36.132Z,88.29
2018-09-01T09:04:36.148Z,88.09
2018-09-01T09:05:36.229Z,88.19
2018-09-01T09:06:36.235Z,89.29
2018-09-01T09:07:36.262Z,89.19
2018-09-01T09:08:36.312Z,89.38
2018-09-01T09:09:36.362Z,89.95
2018-09-01T09:10:36.383Z,89.86
2018-09-01T09:11:36.450Z,90.00
2018-09-01T09:12:36.460Z,90.67
2018-09-01T09:13:36.494Z,91.25
2018-09-01T09:14:36.583Z,91.15
2018-09-01T09:15:36.578Z,92.06
2018-09-01T09:16:36.619Z,91.10
2018-09-01T09:17:36.660Z,92.06
2018-09-01T09:18:36.792Z,92.44
2018-09-01T09:19:36.733Z,93.88
2018-09-01T09:20:36.765Z,93.40
2018-09-01T09:21:36.805Z,93.93
2018-09-01T09:22:36.850Z,95.26
2018-09-01T09:23:36.882Z,94.79
2018-09-01T09:24:36.921Z,95.65
2018-09-01T09:25:36.960Z,95.26
2018-09-01T09:26:36.999Z,95.26
2018-09-01T09:27:37.041Z,95.75
2018-09-01T09:28:37.093Z,96.61
2018-09-01T09:29:37.120Z,97.14
2018-09-01T09:30:37.155Z,96.85
2018-09-01T09:31:37.192Z,97.42
2018-09-01T09:32:37.237Z,97.52
2018-09-01T09:33:37.275Z,97.04
2018-09-01T09:34:37.349Z,97.42
2018-09-01T09:35:37.358Z,96.99
2018-09-01T09:36:37.387Z,97.38
2018-09-01T09:37:37.435Z,96.99
2018-09-01T09:38:37.476Z,99.10
2018-09-01T09:39:37.509Z,97.56
2018-09-01T09:40:37.555Z,98.96
2018-09-01T09:41:37.586Z,98.10
2018-09-01T09:42:37.623Z,98.10
2018-09-01T09:43:37.663Z,98.29
2018-09-01T09:44:37.704Z,99.01
2018-09-01T09:45:37.744Z,98.24
2018-09-01T09:46:37.784Z,99.40
2018-09-01T09:47:37.824Z,99.10
2018-09-01T09:48:37.866Z,99.35
2018-09-01T09:49:37.901Z,99.15
2018-09-01T09:50:38.038Z,99.15
2018-09-01T09:51:37.991Z,99.54
2018-09-01T09:52:38.031Z,99.15
2018-09-01T09:53:38.060Z,99.06
2018-09-01T09:54:38.099Z,99.44
2018-09-01T09:55:38.139Z,99.15
2018-09-01T09:56:38.181Z,99.44
2018-09-01T09:57:38.222Z,99.99
2018-09-01T09:58:38.260Z,99.83
2018-09-01T09:59:38.305Z,99.83
2018-09-01T10:00:38.351Z,99.99
2018-09-01T10:01:38.395Z,99.99
2018-09-01T10:02:38.426Z,98.10
2018-09-01T10:03:38.459Z,97.33
2018-09-01T10:04:38.503Z,97.42
2018-09-01T10:05:38.588Z,93.87
2018-09-01T10:06:38.582Z,94.45
2018-09-01T10:07:38.673Z,94.93
2018-09-01T10:08:38.661Z,95.45
2018-09-01T10:09:38.707Z,93.87
2018-09-01T10:10:38.748Z,93.24
2018-09-01T10:11:38.781Z,90.94
2018-09-01T10:12:38.825Z,91.37
2018-09-01T10:13:38.865Z,90.45
2018-09-01T10:14:38.902Z,90.55
2018-09-01T10:15:38.963Z,89.01
2018-09-01T10:16:39.155Z,89.01
2018-09-01T10:17:39.036Z,90.26
2018-09-01T10:18:39.062Z,88.15
2018-09-01T10:19:39.104Z,88.34
2018-09-01T10:20:39.151Z,88.00
2018-09-01T10:21:39.182Z,87.13
2018-09-01T10:22:39.223Z,85.98
2018-09-01T10:23:39.271Z,83.29
2018-09-01T10:24:39.316Z,81.56
2018-09-01T10:25:39.343Z,81.17
2018-09-01T10:26:39.434Z,79.05
2018-09-01T10:27:39.443Z,80.15
2018-09-01T10:28:39.475Z,77.26
2018-09-01T10:29:39.511Z,79.48
2018-09-01T10:30:39.545Z,79.33
2018-09-01T10:31:39.585Z,77.69
2018-09-01T10:32:39.632Z,76.11
2018-09-01T10:33:39.678Z,77.21
2018-09-01T10:34:39.724Z,77.08
2018-09-01T10:35:39.750Z,77.21
2018-09-01T10:36:39.787Z,75.09
2018-09-01T10:37:39.828Z,75.19
2018-09-01T10:38:39.882Z,73.26
2018-09-01T10:39:39.923Z,74.03
2018-09-01T10:40:40.105Z,70.66
2018-09-01T10:41:39.993Z,72.01
2018-09-01T10:42:40.031Z,73.16
2018-09-01T10:43:40.074Z,72.68
2018-09-01T10:44:40.113Z,72.97
2018-09-01T10:45:40.153Z,74.03
2018-09-01T10:46:40.196Z,74.03
2018-09-01T10:47:40.235Z,75.09
2018-09-01T10:48:40.275Z,75.28
2018-09-01T10:49:40.316Z,75.34
2018-09-01T10:50:40.362Z,75.09
2018-09-01T10:51:40.399Z,75.48
2018-09-01T10:52:40.440Z,73.61
2018-09-01T10:53:40.484Z,73.51
2018-09-01T10:54:40.521Z,73.80
2018-09-01T10:55:40.563Z,73.99
2018-09-01T10:56:40.616Z,74.48
2018-09-01T10:57:40.643Z,73.61
2018-09-01T10:58:40.687Z,73.03
2018-09-01T10:59:40.920Z,72.61
2018-09-01T11:00:40.765Z,72.80
2018-09-01T11:01:40.812Z,73.77
2018-09-01T11:02:40.847Z,74.15
2018-09-01T11:03:40.946Z,74.54
2018-09-01T11:04:40.947Z,74.15
2018-09-01T11:05:41.033Z,73.96
2018-09-01T11:06:41.010Z,73.96
2018-09-01T11:07:41.059Z,75.21
2018-09-01T11:08:41.090Z,74.63
2018-09-01T11:09:41.130Z,73.67
2018-09-01T11:10:41.170Z,73.38
2018-09-01T11:11:41.211Z,73.09
2018-09-01T11:12:41.253Z,74.25
2018-09-01T11:13:41.295Z,73.19
2018-09-01T11:14:41.340Z,72.90
2018-09-01T11:15:41.445Z,72.71
2018-09-01T11:16:41.422Z,73.28
2018-09-01T11:17:41.458Z,73.77
2018-09-01T11:18:41.511Z,73.99
2018-09-01T11:19:41.538Z,73.71
2018-09-01T11:20:41.757Z,73.38
2018-09-01T11:21:41.628Z,73.19
2018-09-01T11:22:41.655Z,72.03
2018-09-01T11:23:41.697Z,71.26
2018-09-01T11:24:41.742Z,71.78
2018-09-01T11:25:41.779Z,71.94
2018-09-01T11:26:41.819Z,72.74
2018-09-01T11:27:41.963Z,73.13
2018-09-01T11:28:41.901Z,72.94
2018-09-01T11:29:41.949Z,72.07
2018-09-01T11:30:41.985Z,71.24
2018-09-01T11:31:42.042Z,71.24
2018-09-01T11:32:42.069Z,70.24
2018-09-01T11:33:42.104Z,69.41
2018-09-01T11:34:42.149Z,69.57
2018-09-01T11:35:42.185Z,69.31
2018-09-01T11:36:42.286Z,68.90
2018-09-01T11:37:42.265Z,69.22
2018-09-01T11:38:42.344Z,68.06
2018-09-01T11:39:42.344Z,66.10
2018-09-01T11:40:42.395Z,66.24
2018-09-01T11:41:42.436Z,66.33
2018-09-01T11:42:42.566Z,66.97
2018-09-01T11:43:42.507Z,68.60
2018-09-01T11:44:42.548Z,67.83
2018-09-01T11:45:42.589Z,68.90
2018-09-01T11:46:42.630Z,68.13
2018-09-01T11:47:42.671Z,65.91
2018-09-01T11:48:42.724Z,66.01
2018-09-01T11:49:42.756Z,65.43
2018-09-01T11:50:42.794Z,66.10
2018-09-01T11:51:42.833Z,67.93
2018-09-01T11:52:42.874Z,68.32
2018-09-01T11:53:43.014Z,67.74
2018-09-01T11:54:42.952Z,66.49
2018-09-01T11:55:43.009Z,67.26
2018-09-01T11:56:43.041Z,68.13
2018-09-01T11:57:43.076Z,68.90
2018-09-01T11:58:43.226Z,68.13
2018-09-01T11:59:43.157Z,67.35
2018-09-01T12:00:43.200Z,68.13
2018-09-01T12:01:43.242Z,68.16
2018-09-01T12:02:43.280Z,65.91
2018-09-01T12:03:43.318Z,64.86
2018-09-01T12:04:43.368Z,64.89
2018-09-01T12:05:43.401Z,64.66
2018-09-01T12:06:43.442Z,65.27
2018-09-01T12:07:43.480Z,65.08
2018-09-01T12:08:43.526Z,65.85
2018-09-01T12:09:43.568Z,64.59
2018-09-01T12:10:43.605Z,62.48
2018-09-01T12:11:43.651Z,62.38
2018-09-01T12:12:43.683Z,62.29
2018-09-01T12:13:43.729Z,61.32
2018-09-01T12:14:43.761Z,60.94
2018-09-01T12:15:43.819Z,60.84
2018-09-01T12:16:43.845Z,60.17
2018-09-01T12:17:43.886Z,60.46
2018-09-01T12:18:43.929Z,62.00
2018-09-01T12:19:43.964Z,60.94
2018-09-01T12:20:44.013Z,60.36
2018-09-01T12:21:44.049Z,60.55
2018-09-01T12:22:44.090Z,60.46
2018-09-01T12:23:44.126Z,60.46
2018-09-01T12:24:44.169Z,59.33
2018-09-01T12:25:44.210Z,58.72
2018-09-01T12:26:44.250Z,57.86
2018-09-01T12:27:44.290Z,58.63
2018-09-01T12:28:44.342Z,58.05
2018-09-01T12:29:44.372Z,58.27
2018-09-01T12:30:44.423Z,58.08
2018-09-01T12:31:44.454Z,56.63
2018-09-01T12:32:44.503Z,56.41
2018-09-01T12:33:44.534Z,56.99
2018-09-01T12:34:44.575Z,56.35
2018-09-01T12:35:44.630Z,55.48
2018-09-01T12:36:44.675Z,55.29
2018-09-01T12:37:44.696Z,55.38
2018-09-01T12:38:44.744Z,56.73
2018-09-01T12:39:44.785Z,56.05
2018-09-01T12:40:44.818Z,55.00
2018-09-01T12:41:44.859Z,55.45
2018-09-01T12:42:44.906Z,56.25
2018-09-01T12:43:45.043Z,55.48
2018-09-01T12:44:44.982Z,54.61
2018-09-01T12:45:45.022Z,55.29
2018-09-01T12:46:45.062Z,54.61
2018-09-01T12:47:45.109Z,54.58
2018-09-01T12:48:45.149Z,55.38
2018-09-01T12:49:45.183Z,55.48
2018-09-01T12:50:45.235Z,55.77
2018-09-01T12:51:45.264Z,54.90
2018-09-01T12:52:45.315Z,54.90